»·PEaware :: N454AH KMYF-KBUR

N454AH :: KMYF-KBUR

FLIGHT INFORMATION

Flight Status: Arrived
Operator: Privately registered:
United States
More flights under this callsign
Pilot: Andrew H. (17317)
Aircraft: Unknown
(SF50)
More flights by this aircraft type
Origin: KMYF Montgomery
United States
Destination: KBUR Bob Hope-Burbank
United States
More flights between these airports :: More routes between these airports
Route: +CWARD2 LAX SILEX
File this flight plan on PilotEdge
Remarks:
Altitude:
(Current/Filed)
10,000ft
Speed:
(Current/Filed)
225kts
Departed: 05-Feb-19 07:28 PM
Arrived: 05-Feb-19 08:08 PM
Distance/Time
Traveled:
103nm/0:40
Distance/Time
To Go:
Arrived

Flight Plot

Page will automatically refresh every two minutes.

Flight plan parsing failed; only flown route is shown


Map Options




Map Legend


Flown Route
Filed Route
Departure Airport
Arrival Airport
Navaid (VOR, NDB)
Fix

Horizontal Profiles

Position Reports

Time Latitude Longitude Heading Altitude Ground
Speed
05-Feb-19 18:44 32.811670 -117.135861 0 418ft 0kts
05-Feb-19 18:45 32.811670 -117.135861 0 418ft 0kts
05-Feb-19 18:46 32.811670 -117.135861 0 418ft 0kts
05-Feb-19 18:47 32.811670 -117.135861 0 418ft 0kts
05-Feb-19 18:48 32.811670 -117.135861 0 418ft 0kts
05-Feb-19 18:49 32.811670 -117.135861 0 418ft 0kts
05-Feb-19 18:50 32.811670 -117.135861 0 418ft 0kts
05-Feb-19 18:51 32.811670 -117.135861 0 418ft 0kts
05-Feb-19 18:52 32.811670 -117.135861 0 418ft 0kts
05-Feb-19 18:53 32.811670 -117.135861 0 418ft 0kts
05-Feb-19 18:54 32.811670 -117.135861 0 418ft 0kts
05-Feb-19 18:55 32.811670 -117.135861 0 418ft 0kts
05-Feb-19 18:56 32.811670 -117.135861 0 418ft 0kts
05-Feb-19 18:57 32.811670 -117.135861 0 418ft 0kts
05-Feb-19 18:58 32.811670 -117.135861 0 418ft 0kts
05-Feb-19 18:59 32.811670 -117.135861 0 418ft 0kts
05-Feb-19 19:00 32.811670 -117.135861 0 418ft 0kts
05-Feb-19 19:01 32.811670 -117.135861 0 418ft 0kts
05-Feb-19 19:02 32.811670 -117.135861 0 418ft 0kts
05-Feb-19 19:03 32.811670 -117.135861 0 418ft 0kts
05-Feb-19 19:04 32.811670 -117.135861 0 418ft 0kts
05-Feb-19 19:05 32.811670 -117.135861 0 418ft 0kts
05-Feb-19 19:06 32.811670 -117.135861 0 418ft 0kts
05-Feb-19 19:07 32.811670 -117.135861 0 418ft 0kts
05-Feb-19 19:08 32.811670 -117.135861 0 418ft 0kts
05-Feb-19 19:09 32.811670 -117.135861 0 418ft 0kts
05-Feb-19 19:10 32.811670 -117.135861 0 418ft 0kts
05-Feb-19 19:11 32.811670 -117.135861 0 418ft 0kts
05-Feb-19 19:12 32.811670 -117.135861 0 418ft 0kts
05-Feb-19 19:13 32.811670 -117.135861 0 418ft 0kts
05-Feb-19 19:14 32.811670 -117.135861 0 418ft 0kts
05-Feb-19 19:15 32.811670 -117.135861 0 418ft 0kts
05-Feb-19 19:16 32.811670 -117.135861 0 418ft 0kts
05-Feb-19 19:17 32.811670 -117.135861 0 418ft 0kts
05-Feb-19 19:18 32.811670 -117.135861 0 418ft 0kts
05-Feb-19 19:19 32.811670 -117.135861 0 418ft 0kts
05-Feb-19 19:20 32.811670 -117.135861 0 418ft 0kts
05-Feb-19 19:21 32.811670 -117.135861 0 418ft 0kts
05-Feb-19 19:22 32.811670 -117.135861 0 418ft 0kts
05-Feb-19 19:23 32.811945 -117.135587 7 418ft 4kts
05-Feb-19 19:24 32.811248 -117.133163 120 418ft 8kts
05-Feb-19 19:25 32.812044 -117.131454 23 422ft 0kts
05-Feb-19 19:26 32.812599 -117.131161 12 424ft 7kts
05-Feb-19 19:27 32.820624 -117.151573 292 798ft 132kts
05-Feb-19 19:28 32.828038 -117.200027 279 2024ft 174kts
05-Feb-19 19:29 32.837935 -117.259153 280 2985ft 191kts
05-Feb-19 19:30 32.849729 -117.329079 280 3277ft 224kts
05-Feb-19 19:31 32.861678 -117.399555 279 5072ft 215kts
05-Feb-19 19:32 32.873502 -117.469269 277 6885ft 218kts
05-Feb-19 19:33 32.885730 -117.541394 277 8713ft 229kts
05-Feb-19 19:34 32.935948 -117.557121 7 10065ft 258kts
05-Feb-19 19:35 32.979384 -117.613139 297 10072ft 249kts
05-Feb-19 19:36 33.021858 -117.675974 308 10074ft 236kts
05-Feb-19 19:37 33.067280 -117.732595 313 10058ft 239kts
05-Feb-19 19:38 33.119062 -117.785733 314 10056ft 248kts
05-Feb-19 19:39 33.172302 -117.839960 315 10054ft 250kts
05-Feb-19 19:40 33.238619 -117.872762 342 10048ft 277kts
05-Feb-19 19:41 33.316872 -117.892540 342 10043ft 289kts
05-Feb-19 19:42 33.393153 -117.919638 319 9790ft 279kts
05-Feb-19 19:43 33.454866 -117.976292 317 8304ft 280kts
05-Feb-19 19:44 33.515641 -118.033798 318 6936ft 277kts
05-Feb-19 19:45 33.575027 -118.090114 319 6046ft 266kts
05-Feb-19 19:46 33.634389 -118.146525 318 6103ft 273kts
05-Feb-19 19:47 33.694352 -118.203625 318 6040ft 273kts
05-Feb-19 19:48 33.754154 -118.260664 320 6032ft 274kts
05-Feb-19 19:49 33.814338 -118.318166 320 5956ft 275kts
05-Feb-19 19:50 33.874536 -118.375790 319 5956ft 273kts
05-Feb-19 19:51 33.934014 -118.432042 325 5954ft 272kts
05-Feb-19 19:52 34.000254 -118.476876 328 5954ft 270kts
05-Feb-19 19:53 34.065592 -118.520639 327 5953ft 259kts
05-Feb-19 19:54 34.123738 -118.559641 326 5944ft 218kts
05-Feb-19 19:55 34.169788 -118.590545 325 5933ft 156kts
05-Feb-19 19:56 34.205791 -118.610138 332 5932ft 130kts
05-Feb-19 19:57 34.243522 -118.630090 332 5122ft 166kts
05-Feb-19 19:58 34.236743 -118.661905 161 4060ft 150kts
05-Feb-19 19:59 34.212315 -118.627538 131 3930ft 122kts
05-Feb-19 20:00 34.199669 -118.593397 92 3938ft 116kts
05-Feb-19 20:01 34.200075 -118.554045 95 3721ft 126kts
05-Feb-19 20:02 34.199593 -118.507937 93 3017ft 140kts
05-Feb-19 20:03 34.199089 -118.464031 92 2304ft 129kts
05-Feb-19 20:04 34.198571 -118.421509 92 1619ft 125kts
05-Feb-19 20:05 34.198135 -118.386493 92 1038ft 78kts
05-Feb-19 20:06 34.197786 -118.360060 91 719ft 76kts
05-Feb-19 20:07 34.197186 -118.350199 228 694ft 1kts
05-Feb-19 20:08 34.197190 -118.353092 270 699ft 9kts
05-Feb-19 20:09 34.197193 -118.354705 236 703ft 0kts
05-Feb-19 20:10 34.196852 -118.352820 175 699ft 0kts
05-Feb-19 20:11 34.196852 -118.352820 175 699ft 0kts
05-Feb-19 20:12 34.196852 -118.352820 175 699ft 0kts
05-Feb-19 20:13 34.196852 -118.352820 175 699ft 0kts
05-Feb-19 20:14 34.196852 -118.352820 175 699ft 0kts
05-Feb-19 20:15 34.196852 -118.352820 175 699ft 0kts
05-Feb-19 20:16 34.196852 -118.352820 175 699ft 0kts
05-Feb-19 20:17 34.196852 -118.352820 175 699ft 0kts
05-Feb-19 20:18 34.196852 -118.352820 175 699ft 0kts
05-Feb-19 20:19 34.196852 -118.352820 175 699ft 0kts
05-Feb-19 20:20 34.196852 -118.352820 175 699ft 0kts
05-Feb-19 20:21 34.196852 -118.352820 175 699ft 0kts

Navigation Log

Ident Type
Flight plan parsing failed, navigation log unavailable